Time;durP1;ratioP1;P1;durP2;ratioP2;P2;SDS_P1;SDS_P2;PMS_P1;PMS_P2;Temp;Humidity;BMP_temperature;BMP_pressure;BME280_temperature;BME280_humidity;BME280_pressure;Samples;Min_cycle;Max_cycle;Signal;HPM_P1;HPM_P2
2022/07/19 00:00:24;;;;;;;7.85;5.00;;;21.00;74.70;;;;;;5003063;28;20052;-63
2022/07/19 00:02:51;;;;;;;8.15;4.43;;;20.90;74.60;;;;;;5001508;28;20049;-63
2022/07/19 00:05:17;;;;;;;7.03;5.18;;;20.90;74.70;;;;;;5001044;28;20508;-63
2022/07/19 00:07:45;;;;;;;7.97;5.50;;;20.90;75.00;;;;;;5001077;28;20052;-63
2022/07/19 00:10:13;;;;;;;7.43;4.97;;;20.90;75.30;;;;;;5001661;28;20038;-63
2022/07/19 00:12:40;;;;;;;10.55;5.43;;;20.90;75.60;;;;;;4998732;28;20113;-63
2022/07/19 00:15:08;;;;;;;7.32;4.95;;;20.90;75.80;;;;;;5000378;28;20050;-63
2022/07/19 00:17:38;;;;;;;13.13;5.22;;;20.90;76.30;;;;;;4999351;28;20447;-63
2022/07/19 00:20:05;;;;;;;9.52;4.82;;;20.80;77.40;;;;;;4999359;28;20061;-63
2022/07/19 00:22:30;;;;;;;6.95;5.00;;;20.80;77.00;;;;;;5002147;28;20077;-63
2022/07/19 00:24:56;;;;;;;8.65;4.95;;;20.80;77.20;;;;;;4999272;28;20153;-63
2022/07/19 00:27:22;;;;;;;9.40;4.82;;;20.70;77.10;;;;;;4983209;28;20099;-63
2022/07/19 00:29:48;;;;;;;7.43;4.70;;;20.70;77.50;;;;;;5014615;28;20053;-63
2022/07/19 00:32:14;;;;;;;7.40;4.97;;;20.70;77.60;;;;;;4986324;28;20046;-63
2022/07/19 00:34:39;;;;;;;10.90;5.22;;;20.70;77.70;;;;;;4989658;28;20535;-63
2022/07/19 00:37:05;;;;;;;14.63;5.20;;;20.70;78.30;;;;;;5005209;28;20662;-63
2022/07/19 00:39:31;;;;;;;10.13;5.03;;;20.70;78.40;;;;;;4982568;28;20053;-63
2022/07/19 00:41:57;;;;;;;8.60;4.93;;;20.70;78.50;;;;;;4962783;28;20133;-63
2022/07/19 00:44:23;;;;;;;8.05;4.70;;;20.60;78.40;;;;;;4997288;28;20053;-63
2022/07/19 00:46:49;;;;;;;7.40;4.72;;;20.60;78.50;;;;;;4995540;28;20504;-63
2022/07/19 00:49:15;;;;;;;7.20;5.15;;;20.60;78.60;;;;;;4996047;28;20045;-63
2022/07/19 00:51:43;;;;;;;10.88;4.57;;;20.60;78.60;;;;;;4996546;28;20377;-63
2022/07/19 00:54:12;;;;;;;7.53;4.50;;;20.60;78.70;;;;;;4995553;28;20077;-63
2022/07/19 00:56:38;;;;;;;7.13;4.93;;;20.50;79.10;;;;;;4998889;28;20100;-63
2022/07/19 00:59:05;;;;;;;8.93;4.75;;;20.50;78.60;;;;;;4995885;28;20045;-63
2022/07/19 01:01:32;;;;;;;7.72;4.75;;;20.50;78.70;;;;;;4995972;28;20052;-63
2022/07/19 01:03:58;;;;;;;6.93;4.40;;;20.50;78.70;;;;;;4994527;28;20193;-63
2022/07/19 01:06:25;;;;;;;5.18;4.10;;;20.50;78.80;;;;;;4998260;28;20083;-63
2022/07/19 01:08:51;;;;;;;11.27;4.25;;;20.50;79.30;;;;;;4996832;28;20172;-63
2022/07/19 01:11:16;;;;;;;8.20;4.80;;;20.40;79.40;;;;;;4998634;28;20049;-64
2022/07/19 01:13:42;;;;;;;7.65;4.60;;;20.40;79.70;;;;;;4999606;28;20042;-64
2022/07/19 01:16:08;;;;;;;7.20;4.47;;;20.40;80.00;;;;;;4997615;28;20050;-63
2022/07/19 01:18:34;;;;;;;7.20;4.22;;;20.30;80.30;;;;;;4998863;28;20045;-63
2022/07/19 01:21:02;;;;;;;7.88;4.63;;;20.30;80.70;;;;;;4992850;28;20115;-63
2022/07/19 01:23:28;;;;;;;4.90;3.80;;;20.20;81.40;;;;;;4998180;28;20072;-63
2022/07/19 01:25:54;;;;;;;6.35;4.15;;;20.20;81.10;;;;;;4990912;28;20057;-63
2022/07/19 01:28:20;;;;;;;7.72;4.22;;;20.10;80.80;;;;;;4976044;28;20416;-63
2022/07/19 01:30:46;;;;;;;8.15;4.10;;;20.10;80.90;;;;;;5000837;28;20073;-63
2022/07/19 01:33:12;;;;;;;6.60;4.38;;;20.10;81.30;;;;;;4971978;28;20050;-63
2022/07/19 01:35:38;;;;;;;8.25;4.68;;;20.10;81.60;;;;;;4995313;28;20045;-63
2022/07/19 01:38:04;;;;;;;7.85;4.50;;;20.00;81.60;;;;;;4999678;28;20550;-63
2022/07/19 01:40:30;;;;;;;7.35;4.45;;;20.00;81.80;;;;;;4998989;28;20050;-63
2022/07/19 01:42:56;;;;;;;6.43;4.00;;;20.00;82.40;;;;;;4999821;28;20131;-63
2022/07/19 01:45:21;;;;;;;7.28;4.78;;;20.00;82.70;;;;;;4993145;28;20184;-63
2022/07/19 01:47:47;;;;;;;6.85;4.97;;;19.90;83.40;;;;;;4994970;28;20054;-63
2022/07/19 01:50:15;;;;;;;7.95;4.97;;;19.90;84.40;;;;;;4996955;28;20400;-63
2022/07/19 01:52:42;;;;;;;6.40;4.53;;;19.80;84.70;;;;;;4980281;28;20041;-63
2022/07/19 01:55:08;;;;;;;7.82;4.55;;;19.80;85.50;;;;;;4996615;28;20038;-63
2022/07/19 01:57:34;;;;;;;5.60;4.38;;;19.80;85.80;;;;;;5012901;28;20073;-63
2022/07/19 02:00:00;;;;;;;8.38;4.75;;;19.70;85.90;;;;;;4995213;28;20168;-64
2022/07/19 02:02:26;;;;;;;6.35;4.60;;;19.70;86.40;;;;;;4992814;28;20038;-63
2022/07/19 02:04:52;;;;;;;6.32;3.88;;;19.60;87.40;;;;;;5012945;28;20088;-63
2022/07/19 02:07:18;;;;;;;7.05;4.43;;;19.60;87.30;;;;;;5000365;28;20067;-63
2022/07/19 02:09:43;;;;;;;5.45;4.15;;;19.60;87.20;;;;;;4998243;28;20041;-63
2022/07/19 02:12:09;;;;;;;6.72;4.55;;;19.50;87.10;;;;;;4995048;28;20052;-63
2022/07/19 02:14:35;;;;;;;10.85;5.32;;;19.60;88.00;;;;;;4978884;28;20049;-63
2022/07/19 02:17:01;;;;;;;10.18;5.38;;;19.40;89.60;;;;;;4979767;28;20042;-63
2022/07/19 02:19:27;;;;;;;11.45;5.45;;;19.40;90.10;;;;;;4980057;28;20042;-63
2022/07/19 02:21:52;;;;;;;11.82;5.30;;;19.40;90.30;;;;;;4996656;28;20042;-63
2022/07/19 02:24:18;;;;;;;9.77;4.97;;;19.40;90.50;;;;;;4971369;28;20053;-63
2022/07/19 02:26:44;;;;;;;7.22;5.13;;;19.40;90.40;;;;;;4977117;28;20050;-63
2022/07/19 02:29:10;;;;;;;5.97;4.63;;;19.40;90.70;;;;;;4998819;28;20061;-63
2022/07/19 02:31:36;;;;;;;6.65;4.85;;;19.40;90.60;;;;;;4997347;28;20408;-63
2022/07/19 02:34:02;;;;;;;7.45;4.88;;;19.30;90.70;;;;;;4992369;28;20058;-64
2022/07/19 02:36:27;;;;;;;8.88;5.07;;;19.30;90.80;;;;;;4998185;28;20053;-63
2022/07/19 02:38:53;;;;;;;8.55;5.15;;;19.20;91.00;;;;;;4998336;28;20488;-63
2022/07/19 02:41:19;;;;;;;8.52;4.97;;;19.30;91.40;;;;;;4998817;28;20378;-63
2022/07/19 02:43:45;;;;;;;5.72;4.55;;;19.30;91.60;;;;;;4982173;28;20046;-63
2022/07/19 02:46:11;;;;;;;9.68;5.18;;;19.20;91.50;;;;;;4994167;28;20481;-63
2022/07/19 02:48:36;;;;;;;11.02;5.13;;;19.20;91.60;;;;;;5001262;28;20048;-64
2022/07/19 02:51:02;;;;;;;8.32;5.30;;;19.20;91.90;;;;;;5000365;28;20462;-63
2022/07/19 02:53:28;;;;;;;9.63;5.00;;;19.20;92.00;;;;;;4999159;28;20046;-64
2022/07/19 02:55:54;;;;;;;10.15;5.25;;;19.20;92.00;;;;;;4999295;28;21010;-64
2022/07/19 02:58:20;;;;;;;9.75;5.25;;;19.20;92.00;;;;;;4995306;28;20129;-63
2022/07/19 03:00:46;;;;;;;9.32;5.70;;;19.30;91.80;;;;;;4996249;28;20045;-63
2022/07/19 03:05:56;;;;;;;9.90;5.55;;;19.40;91.70;;;;;;4995906;28;20049;-63
2022/07/19 03:08:22;;;;;;;9.02;5.65;;;19.40;91.80;;;;;;4997029;28;20060;-63
2022/07/19 03:10:48;;;;;;;7.75;5.47;;;19.40;91.80;;;;;;4979858;28;20408;-64
2022/07/19 03:13:13;;;;;;;8.93;5.85;;;19.40;91.90;;;;;;4998516;28;20049;-63
2022/07/19 03:15:39;;;;;;;11.75;5.80;;;19.40;92.00;;;;;;4988074;28;20636;-64
2022/07/19 03:18:05;;;;;;;9.82;6.18;;;19.40;92.10;;;;;;4998083;28;20045;-63
2022/07/19 03:20:32;;;;;;;9.40;6.35;;;19.40;92.00;;;;;;4998499;28;20103;-63
2022/07/19 03:22:58;;;;;;;10.23;6.13;;;19.40;91.80;;;;;;5014807;28;20499;-63
2022/07/19 03:25:24;;;;;;;9.32;6.07;;;19.40;91.70;;;;;;5004674;28;20153;-63
2022/07/19 03:27:49;;;;;;;8.38;5.97;;;19.50;91.80;;;;;;5001087;28;20058;-63
2022/07/19 03:30:15;;;;;;;12.10;6.25;;;19.50;91.70;;;;;;4993495;28;20500;-63
2022/07/19 03:32:41;;;;;;;8.73;6.13;;;19.50;91.70;;;;;;4987968;28;20054;-64
2022/07/19 03:35:08;;;;;;;11.07;6.30;;;19.60;91.60;;;;;;4996121;28;20061;-64
2022/07/19 03:37:34;;;;;;;10.05;6.30;;;19.50;91.40;;;;;;4999238;28;20140;-63
2022/07/19 03:39:59;;;;;;;11.52;6.55;;;19.60;91.30;;;;;;4998626;28;20427;-64
2022/07/19 03:42:25;;;;;;;10.88;6.35;;;19.60;91.10;;;;;;4991273;28;20128;-63
2022/07/19 03:44:51;;;;;;;12.32;5.95;;;19.60;91.00;;;;;;5001139;28;20480;-63
2022/07/19 03:47:17;;;;;;;9.85;6.10;;;19.70;90.80;;;;;;5015605;28;20046;-63
2022/07/19 03:49:43;;;;;;;12.50;6.63;;;19.70;90.70;;;;;;4982299;28;20135;-63
2022/07/19 03:52:09;;;;;;;10.07;6.45;;;19.80;90.60;;;;;;5004455;28;20049;-63
2022/07/19 03:54:35;;;;;;;11.40;6.28;;;19.80;90.50;;;;;;4999218;28;20046;-63
2022/07/19 03:57:00;;;;;;;8.70;6.38;;;19.80;90.40;;;;;;4982647;28;20113;-63
2022/07/19 03:59:26;;;;;;;10.73;6.50;;;19.90;90.30;;;;;;4998724;28;20223;-63
2022/07/19 04:01:52;;;;;;;8.90;6.60;;;19.90;90.20;;;;;;4999092;28;20045;-63
2022/07/19 04:04:18;;;;;;;10.43;6.28;;;19.90;90.10;;;;;;4960515;28;20072;-63
2022/07/19 04:06:44;;;;;;;12.13;6.30;;;20.00;90.00;;;;;;5003558;28;20054;-63
2022/07/19 04:09:10;;;;;;;11.95;5.90;;;20.00;89.70;;;;;;4997879;28;20065;-63
2022/07/19 04:11:36;;;;;;;10.23;6.18;;;20.00;89.60;;;;;;4966816;28;20139;-63
2022/07/19 04:14:02;;;;;;;10.10;6.18;;;20.00;89.60;;;;;;4997712;28;20046;-63
2022/07/19 04:16:27;;;;;;;10.00;6.38;;;20.00;89.70;;;;;;4998028;28;20053;-63
2022/07/19 04:18:53;;;;;;;13.60;6.30;;;20.00;90.00;;;;;;5013077;28;20049;-63
2022/07/19 04:21:19;;;;;;;12.43;6.20;;;20.00;90.00;;;;;;5001290;28;20046;-63
2022/07/19 04:23:45;;;;;;;9.10;5.90;;;20.00;90.10;;;;;;5001051;28;20056;-63
2022/07/19 04:26:11;;;;;;;9.80;6.22;;;20.00;90.10;;;;;;5001338;28;20431;-64
2022/07/19 04:28:37;;;;;;;11.55;6.00;;;20.00;90.00;;;;;;5000567;28;20073;-63
2022/07/19 04:31:03;;;;;;;9.02;5.47;;;20.00;90.00;;;;;;4984786;28;20089;-63
2022/07/19 04:33:29;;;;;;;14.55;6.03;;;20.10;90.00;;;;;;5014654;28;20571;-63
2022/07/19 04:35:54;;;;;;;15.20;6.53;;;20.10;90.00;;;;;;4998967;28;20105;-63
2022/07/19 04:38:21;;;;;;;8.70;5.90;;;20.10;90.20;;;;;;5001092;28;20049;-63
2022/07/19 04:40:47;;;;;;;11.52;6.22;;;20.10;90.10;;;;;;4997234;28;20052;-63
2022/07/19 04:43:13;;;;;;;9.15;5.95;;;20.10;90.40;;;;;;5001276;28;20061;-63
2022/07/19 04:45:41;;;;;;;12.35;6.00;;;20.10;90.10;;;;;;4984927;28;20049;-63
2022/07/19 04:48:08;;;;;;;8.75;6.20;;;20.10;90.30;;;;;;4996500;28;20188;-64
2022/07/19 04:50:33;;;;;;;11.27;6.10;;;20.10;90.40;;;;;;4981983;28;20046;-63
2022/07/19 04:52:59;;;;;;;8.45;5.40;;;20.20;90.30;;;;;;5004187;28;20412;-63
2022/07/19 04:55:25;;;;;;;7.38;5.60;;;20.20;90.30;;;;;;4997130;28;20125;-63
2022/07/19 04:57:51;;;;;;;8.63;5.25;;;20.20;90.10;;;;;;5000042;28;20588;-63
2022/07/19 05:00:17;;;;;;;10.45;5.40;;;20.30;90.20;;;;;;4990176;28;20054;-63
2022/07/19 05:02:43;;;;;;;7.03;5.30;;;20.30;90.20;;;;;;4994477;28;20378;-63
2022/07/19 05:05:09;;;;;;;7.30;5.40;;;20.30;90.30;;;;;;5000442;28;20077;-63
2022/07/19 05:07:36;;;;;;;11.82;5.88;;;20.30;90.30;;;;;;5002994;28;20069;-63
2022/07/19 05:10:03;;;;;;;9.95;5.78;;;20.30;90.10;;;;;;4997952;28;20045;-63
2022/07/19 05:12:30;;;;;;;10.48;4.97;;;20.40;90.00;;;;;;5001122;28;20112;-63
2022/07/19 05:14:56;;;;;;;8.50;5.25;;;20.50;90.00;;;;;;4998649;28;20077;-63
2022/07/19 05:17:21;;;;;;;7.03;5.35;;;20.50;90.00;;;;;;4980216;28;20133;-63
2022/07/19 05:19:47;;;;;;;11.70;5.82;;;20.50;90.00;;;;;;4998260;28;20047;-63
2022/07/19 05:22:13;;;;;;;10.00;6.07;;;20.50;89.80;;;;;;4982742;28;20061;-63
2022/07/19 05:24:39;;;;;;;17.65;6.78;;;20.50;89.60;;;;;;4998501;28;20524;-63
2022/07/19 05:27:04;;;;;;;13.02;6.43;;;20.60;89.50;;;;;;5000432;28;20103;-63
2022/07/19 05:29:30;;;;;;;12.90;6.25;;;20.60;89.40;;;;;;4997704;28;20085;-63
2022/07/19 05:31:56;;;;;;;15.13;6.03;;;20.70;89.00;;;;;;4999093;28;20046;-63
2022/07/19 05:34:22;;;;;;;14.30;5.20;;;20.70;88.60;;;;;;4990613;28;20046;-63
2022/07/19 05:36:48;;;;;;;12.88;5.47;;;20.80;88.10;;;;;;5006385;28;20120;-63
2022/07/19 05:39:14;;;;;;;11.65;5.15;;;20.80;87.60;;;;;;4999505;28;20638;-63
2022/07/19 05:41:41;;;;;;;10.23;5.00;;;20.90;87.60;;;;;;4996770;28;20140;-63
2022/07/19 05:44:07;;;;;;;8.90;4.70;;;21.00;86.80;;;;;;4995383;28;20175;-63
2022/07/19 05:46:33;;;;;;;7.53;4.50;;;21.10;86.40;;;;;;4966920;28;20077;-63
2022/07/19 05:48:59;;;;;;;11.98;4.90;;;21.10;85.80;;;;;;4960587;28;20050;-63
2022/07/19 05:51:25;;;;;;;8.38;4.40;;;21.20;85.20;;;;;;5013333;28;20074;-63
2022/07/19 05:53:51;;;;;;;8.45;4.57;;;21.30;84.70;;;;;;4981028;28;20085;-63
2022/07/19 05:56:17;;;;;;;11.18;4.80;;;21.40;84.00;;;;;;4976488;28;20044;-63
2022/07/19 05:58:42;;;;;;;10.73;4.70;;;21.40;83.20;;;;;;5013019;28;20050;-64
2022/07/19 06:01:22;;;;;;;8.32;4.80;;;21.50;82.60;;;;;;5005709;28;20033;-64
2022/07/19 06:03:55;;;;;;;9.43;4.70;;;21.60;81.90;;;;;;5004543;28;20107;-63
2022/07/19 06:06:23;;;;;;;8.25;4.80;;;21.70;81.20;;;;;;4992899;28;20129;-63
2022/07/19 06:08:49;;;;;;;8.80;4.50;;;21.80;80.60;;;;;;4957716;28;20073;-63
2022/07/19 06:11:16;;;;;;;9.48;4.78;;;21.90;80.30;;;;;;4999644;28;20181;-63
2022/07/19 06:13:44;;;;;;;9.40;4.53;;;22.00;79.60;;;;;;4977341;28;20104;-63
2022/07/19 06:16:11;;;;;;;8.18;4.40;;;22.10;79.10;;;;;;4989351;28;20041;-62
2022/07/19 06:18:38;;;;;;;13.00;4.57;;;22.10;78.60;;;;;;4996610;28;20050;-63
2022/07/19 06:21:06;;;;;;;11.07;4.97;;;22.30;78.30;;;;;;5004558;28;20041;-63
2022/07/19 06:23:32;;;;;;;9.18;4.60;;;22.30;78.60;;;;;;5001507;28;20033;-63
2022/07/19 06:25:58;;;;;;;8.57;4.95;;;22.40;77.50;;;;;;5002054;28;20064;-63
2022/07/19 06:28:25;;;;;;;6.72;4.60;;;22.50;77.20;;;;;;5002129;28;20499;-62
2022/07/19 06:30:51;;;;;;;7.05;4.60;;;22.60;76.40;;;;;;4997465;28;20048;-62
2022/07/19 06:33:17;;;;;;;8.35;4.30;;;22.70;76.20;;;;;;4984227;28;20061;-63
2022/07/19 06:35:42;;;;;;;14.48;4.72;;;22.80;76.20;;;;;;4991295;28;20862;-63
2022/07/19 06:38:08;;;;;;;12.45;4.30;;;22.90;75.90;;;;;;5015079;28;20053;-63
2022/07/19 06:40:34;;;;;;;7.88;3.80;;;23.00;75.30;;;;;;5000685;28;20046;-63
2022/07/19 06:43:00;;;;;;;12.48;4.75;;;23.10;74.90;;;;;;4995143;28;20095;-63
2022/07/19 06:45:27;;;;;;;9.48;4.38;;;23.20;74.40;;;;;;4963963;28;20107;-62
2022/07/19 06:47:53;;;;;;;9.57;4.20;;;23.30;74.70;;;;;;4991723;28;20389;-63
2022/07/19 06:50:19;;;;;;;10.30;4.32;;;23.40;74.50;;;;;;4980124;28;20069;-63
2022/07/19 06:52:45;;;;;;;9.98;4.30;;;23.50;74.70;;;;;;4997248;28;20049;-63
2022/07/19 06:55:11;;;;;;;12.90;4.40;;;23.60;74.70;;;;;;4994742;28;20546;-63
2022/07/19 06:57:38;;;;;;;12.50;4.43;;;23.70;74.00;;;;;;4992465;28;20044;-63
2022/07/19 07:00:06;;;;;;;9.25;3.75;;;23.80;73.80;;;;;;4995785;28;20455;-63
2022/07/19 07:02:32;;;;;;;6.03;3.90;;;23.90;73.70;;;;;;4990114;28;20077;-62
2022/07/19 07:04:58;;;;;;;9.43;3.88;;;24.00;73.70;;;;;;4995117;28;20508;-63
2022/07/19 07:07:24;;;;;;;9.73;4.38;;;24.10;73.40;;;;;;4996480;28;20049;-63
2022/07/19 07:09:50;;;;;;;9.50;3.92;;;24.20;72.90;;;;;;4992365;28;20806;-63
2022/07/19 07:12:15;;;;;;;9.13;4.15;;;24.40;72.80;;;;;;4978714;28;20057;-63
2022/07/19 07:14:41;;;;;;;9.68;4.22;;;24.40;72.70;;;;;;4997822;28;20124;-63
2022/07/19 07:17:07;;;;;;;7.03;4.03;;;24.60;72.10;;;;;;4993707;28;20046;-63
2022/07/19 07:19:33;;;;;;;5.65;3.90;;;24.70;71.70;;;;;;4997115;28;20037;-63
2022/07/19 07:22:00;;;;;;;7.05;3.72;;;24.80;71.50;;;;;;4994649;28;20472;-63
2022/07/19 07:24:27;;;;;;;15.18;4.40;;;25.00;71.20;;;;;;4987433;28;20382;-63
2022/07/19 07:26:53;;;;;;;5.57;3.60;;;25.00;70.70;;;;;;4992663;28;20046;-63
2022/07/19 07:29:19;;;;;;;6.10;3.28;;;25.10;70.30;;;;;;4979016;28;20080;-63
2022/07/19 07:31:44;;;;;;;13.73;3.70;;;25.30;70.00;;;;;;4993154;28;20384;-63
2022/07/19 07:34:10;;;;;;;7.35;3.78;;;25.40;69.90;;;;;;4994391;28;20045;-63
2022/07/19 07:36:36;;;;;;;8.48;3.33;;;25.50;69.50;;;;;;4996527;28;20380;-63
2022/07/19 07:39:03;;;;;;;5.68;3.55;;;25.60;68.70;;;;;;4993817;28;20054;-63
2022/07/19 07:41:29;;;;;;;7.78;3.70;;;25.70;68.30;;;;;;4995091;28;20041;-63
2022/07/19 07:43:54;;;;;;;9.10;3.63;;;25.80;67.80;;;;;;4993598;28;20046;-63
2022/07/19 07:46:20;;;;;;;11.02;3.42;;;25.90;67.30;;;;;;4997354;28;20499;-63
2022/07/19 07:48:46;;;;;;;6.28;3.30;;;26.00;67.20;;;;;;4999334;28;20049;-63
2022/07/19 07:51:12;;;;;;;8.18;3.40;;;26.10;66.90;;;;;;4994502;28;20045;-63
2022/07/19 07:53:38;;;;;;;6.25;3.42;;;26.20;67.10;;;;;;4947654;28;20061;-63
2022/07/19 07:56:04;;;;;;;5.70;3.28;;;26.40;67.60;;;;;;4986353;28;20181;-63
2022/07/19 07:58:30;;;;;;;7.13;3.17;;;26.50;67.10;;;;;;4994281;28;20543;-63
2022/07/19 08:00:56;;;;;;;6.47;3.20;;;26.60;66.70;;;;;;4995038;28;20583;-63
2022/07/19 08:03:22;;;;;;;4.38;3.10;;;26.70;66.70;;;;;;5003901;28;20050;-63
2022/07/19 08:05:48;;;;;;;4.90;3.20;;;26.80;66.20;;;;;;4998715;28;20053;-63
2022/07/19 08:08:15;;;;;;;7.15;3.33;;;27.00;66.40;;;;;;5002302;28;20057;-63
2022/07/19 08:10:41;;;;;;;5.22;3.20;;;27.10;66.30;;;;;;4992847;28;20144;-63
2022/07/19 08:13:07;;;;;;;5.18;3.03;;;27.20;65.70;;;;;;5001368;28;20508;-63
2022/07/19 08:15:35;;;;;;;8.98;3.17;;;27.30;65.70;;;;;;4999920;28;20408;-63
2022/07/19 08:18:01;;;;;;;8.13;3.20;;;27.40;65.90;;;;;;5015244;28;20045;-63
2022/07/19 08:20:27;;;;;;;4.85;3.13;;;27.60;65.40;;;;;;5000282;28;20085;-63
2022/07/19 08:22:52;;;;;;;7.00;3.22;;;27.70;65.20;;;;;;5003106;28;20082;-63
2022/07/19 08:25:18;;;;;;;5.45;2.80;;;27.80;64.40;;;;;;4999093;28;20084;-62
2022/07/19 08:27:45;;;;;;;4.82;3.10;;;27.90;64.30;;;;;;4997432;28;20058;-63
2022/07/19 08:30:11;;;;;;;4.97;2.78;;;28.00;64.30;;;;;;5003473;28;20124;-63
2022/07/19 08:32:38;;;;;;;5.30;2.80;;;28.10;64.00;;;;;;5006299;28;20042;-63
2022/07/19 08:35:06;;;;;;;6.90;2.55;;;28.30;63.70;;;;;;4998865;28;20041;-63
2022/07/19 08:37:31;;;;;;;4.60;2.63;;;28.40;64.10;;;;;;5003026;28;20036;-63
2022/07/19 08:39:57;;;;;;;4.47;2.72;;;28.50;63.00;;;;;;5000028;28;20492;-63
2022/07/19 08:42:25;;;;;;;7.07;2.65;;;28.70;61.80;;;;;;4996092;28;20054;-63
2022/07/19 08:44:52;;;;;;;7.18;3.15;;;28.80;62.10;;;;;;5011819;28;20416;-63
2022/07/19 08:47:19;;;;;;;3.75;2.40;;;28.90;61.50;;;;;;5001687;28;20107;-63
2022/07/19 08:49:46;;;;;;;7.38;2.88;;;28.90;61.70;;;;;;4999431;28;20041;-63
2022/07/19 08:52:12;;;;;;;5.70;2.38;;;29.10;60.40;;;;;;4989742;28;20797;-62
2022/07/19 08:54:39;;;;;;;6.28;3.00;;;29.20;60.70;;;;;;4995786;28;20444;-63
2022/07/19 08:59:51;;;;;;;6.45;2.50;;;29.40;59.50;;;;;;4997450;28;20042;-64
2022/07/19 09:02:17;;;;;;;12.43;3.75;;;29.50;60.20;;;;;;4997146;28;21260;-63
2022/07/19 09:04:43;;;;;;;7.72;2.53;;;29.60;59.40;;;;;;4995135;28;20073;-63
2022/07/19 09:07:09;;;;;;;6.13;2.45;;;29.80;59.20;;;;;;4994917;28;20141;-63
2022/07/19 09:09:38;;;;;;;3.53;2.28;;;29.90;58.60;;;;;;5004395;28;20049;-63
2022/07/19 09:12:05;;;;;;;3.47;2.80;;;30.00;58.70;;;;;;4997262;28;20168;-63
2022/07/19 09:14:36;;;;;;;3.67;2.50;;;30.00;58.00;;;;;;4996837;28;20107;-62
2022/07/19 09:17:09;;;;;;;7.30;2.70;;;30.20;57.90;;;;;;4993061;28;20103;-63
2022/07/19 09:19:38;;;;;;;4.65;2.40;;;30.30;58.50;;;;;;5000157;28;20045;-63
2022/07/19 09:22:09;;;;;;;7.65;2.30;;;30.40;58.20;;;;;;5011104;28;20074;-63
2022/07/19 09:24:38;;;;;;;5.07;2.63;;;30.50;57.50;;;;;;4998341;28;20136;-63
2022/07/19 09:27:11;;;;;;;7.18;2.22;;;30.60;56.80;;;;;;5002518;28;20137;-63
2022/07/19 09:29:40;;;;;;;5.20;2.25;;;30.70;56.70;;;;;;4994316;28;20049;-63
2022/07/19 09:32:11;;;;;;;10.38;2.90;;;30.90;56.40;;;;;;4993863;28;20046;-63
2022/07/19 09:34:49;;;;;;;5.70;2.20;;;30.90;56.30;;;;;;4999668;28;20053;-63
2022/07/19 09:37:28;;;;;;;8.52;2.42;;;31.00;56.20;;;;;;4992915;28;20046;-63
2022/07/19 09:39:56;;;;;;;6.65;2.70;;;31.20;55.80;;;;;;4998879;28;20038;-63
2022/07/19 09:42:34;;;;;;;4.38;2.25;;;31.30;55.70;;;;;;4997342;28;20050;-63
2022/07/19 09:45:06;;;;;;;9.90;2.20;;;31.40;56.40;;;;;;4998014;28;20684;-63
2022/07/19 09:47:39;;;;;;;;;;;31.60;55.10;;;;;;4996693;28;20046;-63
2022/07/19 09:50:14;;;;;;;3.78;2.13;;;31.70;56.00;;;;;;4999535;28;19921;-63
2022/07/19 09:52:40;;;;;;;4.78;2.20;;;31.80;55.10;;;;;;4994782;28;20050;-63
2022/07/19 09:55:08;;;;;;;5.50;2.83;;;31.90;55.00;;;;;;4989896;28;20492;-63
2022/07/19 09:57:36;;;;;;;10.40;2.30;;;32.10;55.10;;;;;;5004003;28;20064;-63
2022/07/19 10:00:06;;;;;;;15.05;2.83;;;32.20;54.30;;;;;;5002110;28;21384;-63
2022/07/19 10:02:35;;;;;;;4.43;2.63;;;32.30;53.00;;;;;;4997550;28;20046;-63
2022/07/19 10:05:06;;;;;;;7.47;2.17;;;32.30;53.00;;;;;;4991757;28;20037;-63
2022/07/19 10:07:33;;;;;;;6.63;2.20;;;32.40;52.60;;;;;;4998809;28;20125;-63
2022/07/19 10:10:05;;;;;;;5.22;1.98;;;32.50;52.50;;;;;;5000331;28;20045;-63
2022/07/19 10:12:32;;;;;;;5.80;2.25;;;32.60;52.70;;;;;;5001775;28;20053;-63
2022/07/19 10:14:59;;;;;;;5.22;1.90;;;32.80;52.00;;;;;;4997609;28;21220;-63
2022/07/19 10:17:35;;;;;;;4.45;1.85;;;32.90;52.50;;;;;;4995750;28;20046;-63
2022/07/19 10:20:02;;;;;;;9.20;2.47;;;33.00;52.40;;;;;;4996407;28;20053;-63
2022/07/19 10:22:30;;;;;;;4.80;2.33;;;33.10;51.70;;;;;;4998743;28;20112;-64
2022/07/19 10:25:17;;;;;;;5.78;2.20;;;33.20;51.80;;;;;;4989635;28;20124;-62
2022/07/19 10:27:54;;;;;;;4.95;2.08;;;33.50;51.80;;;;;;5013886;28;20050;-62
2022/07/19 10:30:25;;;;;;;9.18;2.10;;;33.50;50.50;;;;;;4998177;28;20514;-62
2022/07/19 10:32:53;;;;;;;6.15;2.10;;;33.60;50.40;;;;;;4991900;28;20156;-62
2022/07/19 10:35:25;;;;;;;4.85;2.05;;;33.60;50.50;;;;;;4995564;28;20049;-62
2022/07/19 10:37:52;;;;;;;6.65;2.00;;;33.70;50.60;;;;;;4996005;28;20098;-62
2022/07/19 10:40:51;;;;;;;5.55;2.10;;;33.80;49.80;;;;;;4995454;28;20532;-63
2022/07/19 10:43:20;;;;;;;4.47;1.90;;;34.00;50.50;;;;;;4962971;28;20049;-62
2022/07/19 10:46:01;;;;;;;5.22;1.88;;;34.10;50.10;;;;;;4996595;28;20519;-62
2022/07/19 10:48:40;;;;;;;7.63;1.97;;;34.20;50.00;;;;;;4994711;28;20141;-63
2022/07/19 10:51:32;;;;;;;5.25;2.20;;;34.40;48.80;;;;;;4994000;28;20311;-62
2022/07/19 10:54:08;;;;;;;4.07;1.90;;;34.60;49.50;;;;;;4987323;28;20508;-62
2022/07/19 10:56:54;;;;;;;13.02;2.10;;;34.70;48.20;;;;;;4999765;28;20068;-62
2022/07/19 10:59:32;;;;;;;8.02;2.30;;;34.80;47.30;;;;;;4996124;28;20084;-62
2022/07/19 11:02:00;;;;;;;4.13;1.70;;;34.90;48.20;;;;;;4993605;28;20037;-63
2022/07/19 11:04:28;;;;;;;3.40;1.98;;;34.90;47.00;;;;;;4994849;28;20057;-63
2022/07/19 11:07:14;;;;;;;7.03;1.98;;;35.00;46.40;;;;;;4998545;28;20544;-63
2022/07/19 11:09:53;;;;;;;2.53;1.70;;;35.10;46.20;;;;;;5006156;28;20500;-65
2022/07/19 11:12:28;;;;;;;3.92;1.80;;;35.20;45.90;;;;;;4976061;28;20074;-63
2022/07/19 11:14:55;;;;;;;3.70;1.77;;;35.30;46.10;;;;;;4998275;28;20050;-63
2022/07/19 11:17:21;;;;;;;4.78;1.55;;;35.40;46.40;;;;;;4997012;28;20052;-63
2022/07/19 11:19:57;;;;;;;6.60;1.58;;;35.50;44.80;;;;;;4993769;28;20034;-62
2022/07/19 11:22:22;;;;;;;6.68;1.73;;;35.60;45.10;;;;;;5005174;28;20037;-63
2022/07/19 11:24:48;;;;;;;5.20;1.80;;;35.70;44.20;;;;;;5003756;28;20049;-62
2022/07/19 11:27:16;;;;;;;3.30;1.48;;;35.80;43.70;;;;;;4995591;28;20100;-63
2022/07/19 11:29:59;;;;;;;4.03;1.45;;;35.80;42.90;;;;;;4997407;28;20050;-63
2022/07/19 11:32:25;;;;;;;7.03;1.90;;;35.90;43.00;;;;;;5002662;28;20129;-63
2022/07/19 11:35:02;;;;;;;6.25;1.70;;;36.00;42.70;;;;;;5000480;28;20131;-63
2022/07/19 11:37:31;;;;;;;3.33;1.40;;;36.10;41.90;;;;;;5004198;28;20100;-63
2022/07/19 11:39:58;;;;;;;3.83;1.60;;;36.10;42.60;;;;;;5003496;28;20157;-62
2022/07/19 11:42:38;;;;;;;2.85;1.38;;;36.20;41.70;;;;;;5002201;28;20049;-63
2022/07/19 11:45:13;;;;;;;7.28;1.60;;;36.30;41.50;;;;;;5014571;28;20050;-63
2022/07/19 11:47:44;;;;;;;1.83;1.40;;;36.40;44.30;;;;;;5001409;28;20126;-62
2022/07/19 11:50:13;;;;;;;3.08;1.50;;;36.50;42.70;;;;;;5000722;28;20132;-62
2022/07/19 11:52:50;;;;;;;1.98;1.25;;;36.60;40.90;;;;;;5003094;28;20050;-62
2022/07/19 11:55:21;;;;;;;1.60;1.15;;;36.70;41.60;;;;;;5020451;28;20057;-62
2022/07/19 11:57:48;;;;;;;;;;;36.70;41.50;;;;;;5006005;28;20074;-62
2022/07/19 12:00:15;;;;;;;3.60;1.20;;;36.80;42.80;;;;;;5003498;28;20389;-63
2022/07/19 12:03:06;;;;;;;5.03;1.30;;;36.90;41.50;;;;;;5010489;28;20475;-63
2022/07/19 12:05:37;;;;;;;2.75;1.40;;;37.10;41.10;;;;;;5002362;28;20505;-62
2022/07/19 12:08:08;;;;;;;2.95;1.45;;;37.20;40.70;;;;;;5007003;28;20080;-62
2022/07/19 12:10:42;;;;;;;7.82;1.85;;;37.30;41.00;;;;;;5004084;28;20555;-63
2022/07/19 12:13:11;;;;;;;3.08;1.52;;;37.30;41.20;;;;;;5004254;28;20050;-63
2022/07/19 12:15:45;;;;;;;2.72;1.30;;;37.40;41.30;;;;;;5005052;28;20500;-62
2022/07/19 12:18:12;;;;;;;4.40;1.00;;;37.40;39.60;;;;;;5006524;28;20105;-62
2022/07/19 12:20:38;;;;;;;1.70;1.17;;;37.50;39.20;;;;;;5008514;28;20446;-62
2022/07/19 12:23:22;;;;;;;4.28;1.40;;;37.50;39.10;;;;;;5002778;28;20551;-63
2022/07/19 12:25:49;;;;;;;2.85;1.30;;;37.60;39.80;;;;;;4993764;28;20104;-63
2022/07/19 12:28:15;;;;;;;5.68;1.50;;;37.70;39.40;;;;;;5014754;28;20121;-63
2022/07/19 12:30:41;;;;;;;1.75;1.20;;;37.80;39.10;;;;;;4995783;28;20068;-63
2022/07/19 12:33:11;;;;;;;5.55;1.40;;;37.90;40.00;;;;;;5002099;28;20643;-63
2022/07/19 12:35:42;;;;;;;2.17;1.17;;;38.00;39.70;;;;;;4998658;28;20048;-63
2022/07/19 12:38:11;;;;;;;3.63;1.30;;;38.00;38.60;;;;;;5001690;28;20231;-63
2022/07/19 12:40:38;;;;;;;4.20;1.30;;;38.00;38.20;;;;;;5000948;28;20520;-63
2022/07/19 12:43:05;;;;;;;2.90;1.40;;;38.20;38.80;;;;;;4999922;28;20049;-62
2022/07/19 12:45:31;;;;;;;2.40;1.25;;;38.30;38.30;;;;;;4982304;28;20124;-63
2022/07/19 12:47:58;;;;;;;4.18;1.35;;;38.40;38.20;;;;;;5022034;28;20054;-63
2022/07/19 12:50:34;;;;;;;2.38;1.30;;;38.50;37.70;;;;;;4999525;28;20046;-64
2022/07/19 12:53:02;;;;;;;2.50;1.20;;;38.50;37.90;;;;;;5005638;28;20148;-63